Helena, MT

6:04 PM MDT on July 30, 2016 (GMT -0600)
GOLDEN ESTATES | | Change Station

Elev 3802 ft 46.63 °N, 112.03 °W | Updated 15 minutes ago

Clear
Clear
95.5 °F
Feels Like 91 °F
N
8.3
Wind Variable Wind from North

Today
High -- | Low -- °F
--% Chance of Precip.
Yesterday
High -- | Low -- °F
Precip. -- in
Pressure 29.62 in
Visibility 10.0 miles
Clouds Clear
Heat Index 91 °F
Dew Point 37 °F
Humidity 13%
Rainfall 0.00 in
Snow Depth Not available.
6:06 AM 9:01 PM
Waning Crescent, 10% visible
METAR KHLN 302353Z 27016G21KT 10SM CLR 36/02 A2971 RMK AO2 SLP029 T03610017 10367 20306 56019
Pressure 29.62 in
Visibility 10.0 miles
Clouds Clear
Heat Index 91 °F
Dew Point 37 °F
Humidity 13%
Rainfall 0.00 in
Snow Depth Not available.
6:06 AM 9:01 PM
Waning Crescent, 10% visible
METAR KHLN 302353Z 27016G21KT 10SM CLR 36/02 A2971 RMK AO2 SLP029 T03610017 10367 20306 56019

10-Day Weather Forecast

Almanac

Astronomy

Jul. 30, 2016 Rise Set
Actual Time
Civil Twilight
Nautical Twilight
Astronomical Twilight
Moon
Length of Visible Light
Length of Day
Tomorrow will be .
, % of the Moon is Illuminated

Today's Extremes

State Highs State Lows

Community

WunderPhotos

Upload Photos

1,928,682 photos uploaded!

WunderBlog® & News

Nearby

Air Quality

  Air Quality AQ Index Pollutant
Not available.

Snow Depth

Station Depth Elevation

Earthquake Activity

City Distance Mag. Time & Date
Minimum magnitude displayed is 2.5.

Coastal Water Temperatures

Place Temperature

Stations

Nearby Weather Stations

Station Location Temp. Windchill Dew Point Humidity Wind Precip. Elev Updated Type
                   

Watches & Warnings

There are currently no watches in effect.